createdAt,value
2018-01-26T00:02:05.704Z,65.68
2018-01-26T00:04:33.322Z,65.77
2018-01-26T00:07:00.942Z,65.63
2018-01-26T00:09:28.543Z,65.70
2018-01-26T00:11:56.150Z,65.68
2018-01-26T00:14:23.741Z,65.68
2018-01-26T00:16:51.603Z,65.72
2018-01-26T00:19:19.195Z,65.49
2018-01-26T00:21:46.789Z,65.79
2018-01-26T00:24:14.427Z,66.05
2018-01-26T00:26:42.014Z,65.05
2018-01-26T00:29:09.615Z,65.29
2018-01-26T00:31:37.212Z,64.87
2018-01-26T00:34:05.143Z,65.16
2018-01-26T00:36:32.732Z,64.92
2018-01-26T00:39:00.475Z,65.27
2018-01-26T00:41:28.096Z,65.08
2018-01-26T00:43:55.683Z,65.24
2018-01-26T00:46:23.300Z,65.17
2018-01-26T00:48:50.892Z,66.39
2018-01-26T00:51:18.541Z,65.32
2018-01-26T00:53:46.141Z,64.80
2018-01-26T00:56:13.729Z,65.15
2018-01-26T00:58:41.343Z,66.49
2018-01-26T01:01:08.932Z,65.20
2018-01-26T01:03:36.531Z,65.54
2018-01-26T01:06:04.119Z,65.51
2018-01-26T01:08:32.095Z,65.95
2018-01-26T01:10:59.695Z,66.09
2018-01-26T01:13:27.275Z,65.63
2018-01-26T01:15:54.891Z,65.74
2018-01-26T01:18:22.485Z,65.36
2018-01-26T01:20:50.093Z,65.58
2018-01-26T01:23:17.691Z,65.80
2018-01-26T01:25:45.512Z,65.66
2018-01-26T01:28:13.093Z,65.81
2018-01-26T01:30:40.684Z,65.65
2018-01-26T01:33:08.289Z,64.45
2018-01-26T01:35:35.876Z,64.60
2018-01-26T01:38:03.500Z,64.88
2018-01-26T01:40:31.092Z,65.50
2018-01-26T01:42:58.716Z,65.73
2018-01-26T01:45:26.301Z,65.53
2018-01-26T01:47:53.939Z,65.61
2018-01-26T01:50:21.533Z,65.99
2018-01-26T01:52:49.123Z,65.81
2018-01-26T01:55:16.734Z,65.13
2018-01-26T01:57:45.306Z,65.58
2018-01-26T02:00:13.304Z,65.20
2018-01-26T02:02:40.890Z,65.08
2018-01-26T02:05:08.488Z,65.80
2018-01-26T02:07:36.102Z,65.81
2018-01-26T02:10:03.698Z,65.97
2018-01-26T02:12:31.515Z,66.39
2018-01-26T02:14:59.104Z,66.17
2018-01-26T02:17:26.696Z,66.31
2018-01-26T02:19:54.342Z,66.09
2018-01-26T02:22:21.936Z,66.08
2018-01-26T02:24:49.552Z,66.29
2018-01-26T02:27:17.151Z,66.27
2018-01-26T02:29:44.946Z,66.47
2018-01-26T02:32:12.589Z,66.41
2018-01-26T02:34:40.292Z,66.59
2018-01-26T02:37:07.915Z,66.66
2018-01-26T02:39:35.504Z,66.33
2018-01-26T02:42:03.127Z,66.22
2018-01-26T02:44:30.743Z,66.88
2018-01-26T02:46:58.578Z,66.44
2018-01-26T02:49:26.163Z,66.47
2018-01-26T02:51:53.752Z,66.00
2018-01-26T02:54:22.450Z,65.89
2018-01-26T02:56:50.034Z,65.88
2018-01-26T02:59:17.650Z,66.11
2018-01-26T03:01:45.237Z,65.70
2018-01-26T03:04:12.827Z,65.48
2018-01-26T03:06:40.462Z,65.51
2018-01-26T03:09:08.060Z,66.34
2018-01-26T03:11:36.027Z,65.74
2018-01-26T03:14:03.615Z,65.38
2018-01-26T03:16:31.215Z,65.90
2018-01-26T03:18:58.831Z,66.45
2018-01-26T03:21:26.416Z,66.32
2018-01-26T03:23:54.023Z,66.37
2018-01-26T03:26:21.629Z,66.02
2018-01-26T03:28:49.553Z,66.08
2018-01-26T03:31:17.219Z,65.90
2018-01-26T03:33:44.803Z,65.60
2018-01-26T03:36:12.402Z,65.89
2018-01-26T03:38:40.002Z,65.37
2018-01-26T03:41:07.620Z,65.43
2018-01-26T03:43:35.202Z,65.96
2018-01-26T03:46:02.987Z,65.94
2018-01-26T03:48:30.586Z,65.97
2018-01-26T03:50:58.177Z,66.56
2018-01-26T03:53:25.809Z,66.58
2018-01-26T03:55:53.425Z,66.15
2018-01-26T03:58:21.048Z,66.06
2018-01-26T04:00:48.641Z,66.32
2018-01-26T04:03:16.578Z,66.34
2018-01-26T04:05:44.163Z,66.14
2018-01-26T04:08:11.748Z,66.13
2018-01-26T04:10:39.364Z,66.02
2018-01-26T04:13:06.977Z,66.14
2018-01-26T04:15:34.601Z,66.83
2018-01-26T04:18:02.201Z,66.58
2018-01-26T04:20:29.960Z,66.72
2018-01-26T04:22:57.556Z,67.43
2018-01-26T04:25:25.144Z,67.19
2018-01-26T04:27:52.763Z,67.50
2018-01-26T04:30:20.356Z,67.36
2018-01-26T04:32:47.962Z,67.39
2018-01-26T04:35:15.556Z,67.26
2018-01-26T04:37:43.574Z,67.36
2018-01-26T04:40:11.175Z,67.23
2018-01-26T04:42:38.764Z,67.87
2018-01-26T04:45:06.380Z,67.29
2018-01-26T04:47:33.966Z,67.49
2018-01-26T04:50:02.544Z,67.54
2018-01-26T04:52:30.140Z,67.28
2018-01-26T04:54:57.778Z,67.34
2018-01-26T04:57:25.367Z,68.04
2018-01-26T04:59:52.958Z,67.07
2018-01-26T05:02:20.587Z,67.32
2018-01-26T05:04:48.186Z,67.45
2018-01-26T05:07:15.933Z,67.63
2018-01-26T05:09:43.549Z,67.58
2018-01-26T05:12:11.353Z,67.67
2018-01-26T05:14:38.944Z,67.08
2018-01-26T05:17:06.530Z,67.52
2018-01-26T05:19:34.142Z,67.46
2018-01-26T05:22:01.735Z,67.56
2018-01-26T05:24:29.349Z,67.79
2018-01-26T05:26:56.946Z,67.53
2018-01-26T05:29:24.870Z,67.24
2018-01-26T05:31:52.522Z,66.82
2018-01-26T05:34:20.126Z,67.20
2018-01-26T05:36:47.738Z,67.33
2018-01-26T05:39:15.321Z,67.25
2018-01-26T05:41:42.976Z,67.21
2018-01-26T05:44:10.603Z,68.53
2018-01-26T05:46:38.423Z,68.11
2018-01-26T05:49:06.019Z,68.30
2018-01-26T05:51:33.614Z,68.66
2018-01-26T05:54:01.226Z,68.33
2018-01-26T05:56:28.807Z,68.58
2018-01-26T05:58:56.411Z,67.85
2018-01-26T06:01:24.020Z,67.40
2018-01-26T06:03:51.678Z,67.10
2018-01-26T06:06:19.273Z,67.10
2018-01-26T06:08:46.869Z,67.20
2018-01-26T06:11:14.488Z,66.96
2018-01-26T06:13:42.092Z,67.10
2018-01-26T06:16:09.704Z,67.21
2018-01-26T06:18:37.315Z,67.42
2018-01-26T06:21:04.947Z,67.21
2018-01-26T06:23:32.532Z,66.82
2018-01-26T06:26:00.132Z,66.55
2018-01-26T06:28:27.743Z,66.91
2018-01-26T06:30:55.329Z,66.79
2018-01-26T06:33:23.079Z,67.00
2018-01-26T06:35:50.672Z,66.79
2018-01-26T06:38:18.282Z,67.24
2018-01-26T06:40:45.907Z,67.06
2018-01-26T06:43:13.816Z,66.74
2018-01-26T06:45:41.406Z,67.28
2018-01-26T06:48:09.011Z,67.07
2018-01-26T06:50:36.664Z,67.47
2018-01-26T06:53:04.258Z,67.60
2018-01-26T06:55:31.870Z,67.35
2018-01-26T06:57:59.462Z,67.60
2018-01-26T07:00:27.119Z,67.58
2018-01-26T07:02:54.702Z,67.33
2018-01-26T07:05:22.305Z,67.68
2018-01-26T07:07:49.908Z,67.81
2018-01-26T07:10:17.555Z,67.86
2018-01-26T07:12:45.184Z,67.84
2018-01-26T07:15:12.776Z,67.89
2018-01-26T07:17:40.412Z,67.35
2018-01-26T07:20:07.995Z,67.31
2018-01-26T07:22:35.602Z,67.44
2018-01-26T07:25:03.224Z,67.58
2018-01-26T07:27:30.852Z,67.32
2018-01-26T07:29:58.460Z,67.13
2018-01-26T07:32:26.048Z,67.03
2018-01-26T07:34:53.763Z,66.69
2018-01-26T07:37:21.353Z,66.49
2018-01-26T07:39:48.963Z,66.74
2018-01-26T07:42:16.576Z,66.46
2018-01-26T07:44:44.174Z,66.34
2018-01-26T07:47:11.783Z,66.35
2018-01-26T07:49:39.401Z,66.16
2018-01-26T07:52:07.027Z,66.05
2018-01-26T07:54:34.652Z,66.04
2018-01-26T07:57:02.245Z,66.17
2018-01-26T07:59:29.882Z,66.39
2018-01-26T08:01:57.468Z,66.49
2018-01-26T08:04:25.103Z,65.95
2018-01-26T08:06:52.731Z,65.31
2018-01-26T08:09:20.368Z,65.08
2018-01-26T08:11:48.011Z,65.01
2018-01-26T08:14:15.603Z,64.79
2018-01-26T08:16:43.240Z,64.52
2018-01-26T08:19:10.839Z,64.95
2018-01-26T08:21:38.458Z,65.07
2018-01-26T08:24:06.096Z,64.99
2018-01-26T08:26:33.965Z,64.73
2018-01-26T08:29:01.599Z,64.63
2018-01-26T08:31:29.195Z,64.54
2018-01-26T08:33:57.393Z,64.49
2018-01-26T08:36:25.043Z,64.04
2018-01-26T08:38:52.655Z,63.81
2018-01-26T08:41:20.452Z,64.19
2018-01-26T08:43:48.094Z,64.18
2018-01-26T08:46:15.684Z,64.15
2018-01-26T08:48:43.333Z,64.32
2018-01-26T08:51:10.948Z,64.45
2018-01-26T08:53:38.906Z,64.13
2018-01-26T08:56:06.559Z,64.01
2018-01-26T08:58:34.231Z,64.12
2018-01-26T09:01:02.122Z,63.85
2018-01-26T09:03:29.707Z,63.48
2018-01-26T09:05:57.310Z,63.53
2018-01-26T09:08:24.991Z,63.47
2018-01-26T09:10:52.584Z,63.67
2018-01-26T09:13:20.224Z,63.28
2018-01-26T09:15:47.828Z,63.84
2018-01-26T09:18:15.415Z,63.89
2018-01-26T09:20:43.023Z,63.59
2018-01-26T09:23:10.615Z,63.17
2018-01-26T09:25:38.255Z,63.17
2018-01-26T09:28:05.850Z,63.68
2018-01-26T09:30:33.440Z,64.01
2018-01-26T09:33:01.043Z,63.88
2018-01-26T09:35:28.662Z,62.92
2018-01-26T09:37:56.319Z,63.73
2018-01-26T09:40:23.907Z,63.38
2018-01-26T09:42:51.528Z,63.19
2018-01-26T09:45:19.153Z,63.15
2018-01-26T09:47:46.747Z,63.09
2018-01-26T09:50:14.701Z,63.31
2018-01-26T09:52:42.294Z,63.40
2018-01-26T09:55:09.885Z,62.53
2018-01-26T10:00:04.385Z,62.94
2018-01-26T10:02:32.016Z,63.43
2018-01-26T10:04:59.618Z,62.67
2018-01-26T10:07:27.285Z,62.59
2018-01-26T10:09:55.167Z,61.96
2018-01-26T10:12:22.782Z,62.48
2018-01-26T10:14:50.424Z,62.50
2018-01-26T10:17:18.108Z,63.26
2018-01-26T10:19:45.724Z,62.62
2018-01-26T10:22:13.328Z,62.01
2018-01-26T10:24:40.938Z,62.26
2018-01-26T10:27:08.565Z,62.38
2018-01-26T10:29:36.218Z,61.75
2018-01-26T10:32:03.844Z,61.35
2018-01-26T10:34:31.726Z,61.81
2018-01-26T10:36:59.316Z,61.52
2018-01-26T10:39:26.926Z,60.87
2018-01-26T10:41:54.531Z,60.81
2018-01-26T10:44:22.146Z,60.88
2018-01-26T10:46:49.738Z,61.10
2018-01-26T10:49:17.342Z,60.65
2018-01-26T10:51:45.005Z,60.47
2018-01-26T10:54:12.601Z,60.56
2018-01-26T10:56:40.220Z,60.52
2018-01-26T10:59:07.827Z,60.01
2018-01-26T11:01:35.424Z,60.97
2018-01-26T11:04:03.325Z,61.26
2018-01-26T11:06:30.935Z,60.71
2018-01-26T11:08:58.664Z,59.89
2018-01-26T11:11:26.332Z,59.39
2018-01-26T11:13:53.965Z,59.05
2018-01-26T11:16:21.579Z,59.39
2018-01-26T11:18:49.184Z,59.48
2018-01-26T11:21:16.829Z,58.38
2018-01-26T11:23:44.444Z,59.17
2018-01-26T11:26:12.043Z,59.09
2018-01-26T11:28:39.672Z,59.40
2018-01-26T11:31:07.273Z,58.18
2018-01-26T11:33:35.092Z,57.70
2018-01-26T11:36:02.682Z,57.51
2018-01-26T11:38:30.279Z,57.43
2018-01-26T11:40:57.893Z,57.44
2018-01-26T11:43:25.490Z,56.84
2018-01-26T11:45:53.303Z,57.27
2018-01-26T11:48:20.906Z,56.73
2018-01-26T11:50:48.512Z,56.74
2018-01-26T11:53:16.133Z,55.77
2018-01-26T11:55:43.728Z,55.72
2018-01-26T11:58:11.707Z,57.18
2018-01-26T12:00:39.320Z,56.92
2018-01-26T12:03:06.945Z,56.92
2018-01-26T12:05:34.847Z,56.33
2018-01-26T12:08:02.597Z,56.69
2018-01-26T12:10:30.560Z,56.30
2018-01-26T12:12:58.172Z,56.23
2018-01-26T12:15:26.180Z,56.28
2018-01-26T12:17:53.805Z,56.22
2018-01-26T12:20:21.492Z,57.14
2018-01-26T12:22:49.152Z,57.41
2018-01-26T12:25:16.787Z,57.77
2018-01-26T12:27:44.434Z,56.36
2018-01-26T12:30:12.039Z,56.33
2018-01-26T12:32:39.740Z,55.46
2018-01-26T12:35:07.349Z,54.83
2018-01-26T12:37:34.968Z,54.97
2018-01-26T12:40:02.593Z,54.21
2018-01-26T12:42:30.228Z,53.77
2018-01-26T12:44:58.212Z,53.14
2018-01-26T12:47:25.843Z,53.79
2018-01-26T12:49:53.438Z,54.18
2018-01-26T12:52:21.059Z,54.54
2018-01-26T12:54:48.649Z,54.35
2018-01-26T12:57:16.298Z,54.33
2018-01-26T12:59:43.887Z,53.93
2018-01-26T13:02:11.848Z,53.30
2018-01-26T13:04:39.459Z,53.86
2018-01-26T13:07:07.047Z,54.39
2018-01-26T13:09:34.674Z,53.88
2018-01-26T13:12:02.296Z,54.44
2018-01-26T13:14:29.913Z,54.79
2018-01-26T13:16:57.516Z,55.70
2018-01-26T13:19:25.276Z,55.44
2018-01-26T13:21:52.873Z,55.95
2018-01-26T13:24:20.467Z,57.86
2018-01-26T13:26:48.093Z,58.13
2018-01-26T13:29:15.692Z,58.21
2018-01-26T13:31:43.332Z,57.88
2018-01-26T13:34:10.946Z,58.31
2018-01-26T13:36:38.611Z,58.54
2018-01-26T13:39:06.209Z,58.63
2018-01-26T13:41:33.803Z,58.14
2018-01-26T13:44:01.430Z,57.96
2018-01-26T13:46:29.023Z,58.71
2018-01-26T13:48:56.645Z,59.33
2018-01-26T13:51:24.246Z,59.57
2018-01-26T13:53:51.863Z,59.41
2018-01-26T13:56:19.462Z,59.61
2018-01-26T13:58:47.055Z,59.55
2018-01-26T14:01:14.691Z,60.07
2018-01-26T14:03:42.279Z,60.35
2018-01-26T14:06:09.896Z,60.69
2018-01-26T14:08:37.496Z,60.23
2018-01-26T14:11:05.132Z,59.83
2018-01-26T14:13:32.720Z,60.15
2018-01-26T14:16:00.349Z,60.79
2018-01-26T14:18:27.996Z,60.76
2018-01-26T14:20:55.611Z,60.96
2018-01-26T14:23:23.240Z,62.13
2018-01-26T14:25:50.840Z,62.75
2018-01-26T14:28:18.505Z,62.32
2018-01-26T14:30:46.101Z,62.18
2018-01-26T14:33:13.707Z,62.51
2018-01-26T14:35:41.479Z,62.10
2018-01-26T14:38:09.201Z,62.47
2018-01-26T14:40:36.814Z,62.52
2018-01-26T14:43:04.412Z,63.27
2018-01-26T14:47:59.145Z,62.81
2018-01-26T14:50:26.754Z,62.96
2018-01-26T14:52:54.392Z,63.35
2018-01-26T14:55:21.996Z,63.18
2018-01-26T14:57:49.606Z,63.73
2018-01-26T15:00:17.198Z,64.21
2018-01-26T15:02:45.040Z,64.62
2018-01-26T15:05:12.645Z,64.21
2018-01-26T15:07:40.251Z,65.41
2018-01-26T15:10:07.873Z,65.32
2018-01-26T15:12:35.507Z,65.63
2018-01-26T15:15:03.133Z,65.86
2018-01-26T15:17:30.737Z,66.62
2018-01-26T15:19:58.562Z,67.27
2018-01-26T15:22:26.184Z,67.17
2018-01-26T15:24:53.837Z,66.69
2018-01-26T15:27:21.457Z,66.53
2018-01-26T15:29:49.063Z,66.98
2018-01-26T15:32:16.682Z,67.64
2018-01-26T15:34:44.267Z,68.54
2018-01-26T15:37:11.907Z,68.66
2018-01-26T15:39:39.522Z,68.15
2018-01-26T15:42:07.110Z,67.85
2018-01-26T15:44:34.732Z,68.14
2018-01-26T15:47:02.344Z,67.72
2018-01-26T15:49:29.962Z,67.83
2018-01-26T15:51:57.587Z,67.87
2018-01-26T15:54:25.227Z,68.53
2018-01-26T15:56:52.808Z,68.82
2018-01-26T15:59:20.440Z,68.63
2018-01-26T16:01:48.112Z,68.52
2018-01-26T16:04:15.747Z,68.05
2018-01-26T16:06:43.334Z,67.81
2018-01-26T16:09:11.077Z,67.60
2018-01-26T16:11:38.663Z,67.49
2018-01-26T16:14:06.268Z,67.14
2018-01-26T16:16:33.894Z,67.25
2018-01-26T16:19:01.527Z,67.12
2018-01-26T16:21:29.163Z,67.21
2018-01-26T16:23:56.756Z,67.52
2018-01-26T16:26:24.634Z,67.86
2018-01-26T16:28:52.239Z,68.01
2018-01-26T16:31:19.870Z,68.06
2018-01-26T16:33:47.488Z,68.14
2018-01-26T16:36:15.077Z,68.24
2018-01-26T16:38:42.741Z,68.01
2018-01-26T16:41:10.349Z,68.39
2018-01-26T16:43:38.259Z,69.24
2018-01-26T16:46:05.873Z,69.35
2018-01-26T16:48:33.470Z,69.63
2018-01-26T16:51:01.094Z,69.29
2018-01-26T16:53:28.730Z,69.40
2018-01-26T16:55:56.349Z,69.44
2018-01-26T16:58:23.958Z,69.17
2018-01-26T17:00:51.903Z,68.98
2018-01-26T17:03:19.500Z,68.83
2018-01-26T17:05:47.095Z,68.77
2018-01-26T17:08:14.723Z,68.59
2018-01-26T17:10:42.312Z,69.06
2018-01-26T17:13:09.924Z,69.26
2018-01-26T17:15:37.520Z,69.44
2018-01-26T17:18:05.423Z,69.35
2018-01-26T17:20:33.022Z,68.84
2018-01-26T17:23:00.627Z,69.32
2018-01-26T17:25:28.259Z,68.48
2018-01-26T17:27:55.877Z,68.68
2018-01-26T17:30:23.497Z,68.76
2018-01-26T17:32:51.111Z,68.28
2018-01-26T17:35:18.959Z,68.74
2018-01-26T17:37:46.554Z,69.07
2018-01-26T17:40:14.192Z,69.40
2018-01-26T17:42:41.803Z,70.01
2018-01-26T17:45:09.407Z,69.24
2018-01-26T17:47:37.024Z,68.94
2018-01-26T17:50:04.624Z,68.96
2018-01-26T17:52:32.503Z,69.52
2018-01-26T17:55:00.708Z,69.74
2018-01-26T17:57:28.312Z,70.08
2018-01-26T17:59:55.959Z,69.77
2018-01-26T18:02:23.572Z,69.67
2018-01-26T18:04:51.206Z,68.99
2018-01-26T18:07:18.795Z,69.67
2018-01-26T18:09:46.755Z,69.52
2018-01-26T18:12:14.354Z,70.45
2018-01-26T18:14:41.947Z,69.89
2018-01-26T18:17:09.575Z,69.72
2018-01-26T18:19:37.205Z,69.37
2018-01-26T18:22:04.838Z,69.69
2018-01-26T18:24:32.427Z,69.86
2018-01-26T18:27:00.105Z,69.81
2018-01-26T18:29:27.725Z,69.88
2018-01-26T18:31:55.322Z,70.58
2018-01-26T18:34:22.956Z,70.78
2018-01-26T18:36:50.573Z,71.43
2018-01-26T18:39:18.204Z,71.37
2018-01-26T18:41:45.811Z,71.45
2018-01-26T18:44:13.438Z,71.79
2018-01-26T18:46:41.055Z,71.22
2018-01-26T18:49:08.832Z,70.96
2018-01-26T18:51:36.446Z,72.36
2018-01-26T18:54:04.058Z,71.77
2018-01-26T18:56:31.704Z,72.30
2018-01-26T18:58:59.315Z,72.41
2018-01-26T19:01:26.944Z,72.41
2018-01-26T19:03:54.534Z,72.47
2018-01-26T19:06:22.129Z,72.90
2018-01-26T19:08:49.758Z,73.28
2018-01-26T19:11:17.378Z,72.93
2018-01-26T19:13:45.000Z,73.93
2018-01-26T19:16:12.602Z,73.68
2018-01-26T19:18:40.235Z,73.64
2018-01-26T19:21:07.861Z,73.18
2018-01-26T19:23:35.451Z,73.13
2018-01-26T19:26:03.072Z,73.26
2018-01-26T19:28:30.661Z,73.23
2018-01-26T19:30:58.280Z,73.71
2018-01-26T19:33:25.871Z,74.60
2018-01-26T19:35:53.599Z,74.52
2018-01-26T19:38:21.196Z,74.59
2018-01-26T19:40:48.799Z,74.62
2018-01-26T19:43:16.414Z,73.87
2018-01-26T19:45:44.017Z,74.51
2018-01-26T19:48:11.639Z,74.55
2018-01-26T19:50:39.235Z,74.37
2018-01-26T19:53:07.120Z,74.41
2018-01-26T19:55:34.725Z,74.37
2018-01-26T19:58:03.099Z,74.63
2018-01-26T20:00:30.726Z,74.96
2018-01-26T20:03:09.958Z,75.74
2018-01-26T20:09:09.493Z,75.16
2018-01-26T20:11:37.079Z,75.13
2018-01-26T20:14:05.116Z,74.92
2018-01-26T20:16:32.707Z,74.67
2018-01-26T20:19:00.301Z,74.84
2018-01-26T20:21:27.932Z,75.76
2018-01-26T20:23:55.534Z,75.20
2018-01-26T20:26:23.156Z,74.86
2018-01-26T20:28:50.755Z,74.89
2018-01-26T20:31:18.387Z,75.03
2018-01-26T20:33:46.043Z,75.39
2018-01-26T20:36:13.650Z,74.84
2018-01-26T20:38:41.271Z,75.27
2018-01-26T20:41:08.884Z,75.97
2018-01-26T20:43:36.501Z,76.66
2018-01-26T20:46:04.095Z,77.27
2018-01-26T20:48:31.735Z,76.77
2018-01-26T20:50:59.324Z,77.02
2018-01-26T20:53:27.093Z,77.08
2018-01-26T20:55:54.695Z,77.22
2018-01-26T20:58:22.304Z,77.08
2018-01-26T21:00:50.256Z,76.97
2018-01-26T21:03:17.856Z,77.34
2018-01-26T21:05:45.439Z,77.54
2018-01-26T21:08:13.059Z,77.20
2018-01-26T21:10:40.658Z,77.14
2018-01-26T21:13:08.264Z,77.17
2018-01-26T21:15:35.871Z,77.17
2018-01-26T21:18:03.501Z,77.13
2018-01-26T21:20:31.092Z,77.38
2018-01-26T21:22:58.724Z,77.82
2018-01-26T21:25:26.307Z,77.96
2018-01-26T21:27:54.254Z,78.13
2018-01-26T21:30:21.850Z,78.10
2018-01-26T21:32:49.440Z,78.26
2018-01-26T21:35:17.081Z,78.34
2018-01-26T21:37:44.666Z,78.00
2018-01-26T21:40:12.284Z,77.58
2018-01-26T21:42:39.879Z,77.33
2018-01-26T21:45:07.680Z,77.79
2018-01-26T21:47:35.267Z,77.67
2018-01-26T21:50:02.860Z,77.53
2018-01-26T21:52:30.466Z,77.16
2018-01-26T21:54:58.069Z,78.27
2018-01-26T21:57:25.692Z,77.59
2018-01-26T21:59:53.289Z,78.00
2018-01-26T22:02:21.231Z,78.03
2018-01-26T22:04:54.400Z,77.91
2018-01-26T22:07:27.612Z,78.35
2018-01-26T22:09:55.215Z,78.42
2018-01-26T22:12:22.812Z,78.08
2018-01-26T22:14:50.432Z,78.43
2018-01-26T22:17:18.090Z,78.35
2018-01-26T22:19:45.708Z,78.64
2018-01-26T22:22:13.306Z,78.68
2018-01-26T22:24:41.337Z,78.74
2018-01-26T22:27:08.930Z,79.10
2018-01-26T22:29:36.532Z,78.91
2018-01-26T22:32:04.188Z,79.36
2018-01-26T22:34:31.827Z,79.53
2018-01-26T22:36:59.482Z,79.49
2018-01-26T22:39:27.117Z,79.06
2018-01-26T22:41:54.731Z,79.14
2018-01-26T22:44:22.364Z,80.03
2018-01-26T22:46:50.383Z,79.71
2018-01-26T22:49:17.989Z,79.38
2018-01-26T22:51:45.583Z,79.16
2018-01-26T22:54:13.224Z,79.49
2018-01-26T22:56:40.815Z,79.74
2018-01-26T22:59:08.435Z,79.68
2018-01-26T23:01:36.024Z,79.44
2018-01-26T23:04:03.748Z,79.12
2018-01-26T23:06:31.343Z,79.10
2018-01-26T23:08:58.936Z,79.11
2018-01-26T23:11:26.559Z,78.98
2018-01-26T23:13:54.152Z,79.18
2018-01-26T23:16:21.767Z,78.53
2018-01-26T23:18:49.376Z,78.65
2018-01-26T23:21:17.330Z,79.09
2018-01-26T23:23:44.945Z,79.14
2018-01-26T23:26:12.577Z,79.26
2018-01-26T23:28:40.201Z,78.75
2018-01-26T23:31:07.849Z,78.69
2018-01-26T23:33:35.462Z,78.10
2018-01-26T23:36:03.067Z,77.99
2018-01-26T23:38:30.894Z,77.87
2018-01-26T23:40:58.490Z,77.82
2018-01-26T23:43:26.087Z,78.48
2018-01-26T23:45:53.741Z,77.86
2018-01-26T23:48:21.335Z,77.93
2018-01-26T23:50:48.967Z,78.57
2018-01-26T23:53:16.557Z,79.68
2018-01-26T23:55:44.584Z,79.38
2018-01-26T23:58:12.325Z,79.02
